Hlavní strana
METAR-TAF:

METAR-TAF

Letiště :

Örnsköldsvik, Švédsko

zeměpisná šířka: 63-24N, zeměpisná délka: 018-58E, výška: 103 m

Aktuální stav počasí

Zpráva byla vytvořena před 25 minutami, v 00:50 UTC
Západoseverozápadní vítr 8 kt
Teplota 6°C
Vlhkost vzduchu 81%
Tlak 1016 hPa
Viditelnost 10 km a více

METAR: ESNO 220050Z AUTO 30008KT 9999 NCD 06/03 Q1016

Čas: 03:15 (01:15 UTC)


TAF: chybějící

Stav a předpovědi počasí z více než 4 000 letišť (zprávy METAR a TAF).

Červené a žluté tečky na mapě představují dostupné meteorologické stanice.

Když kurzor umístíte na tečku, zobrazí se název stanice.

Pak kliknutím zobrazíte stav a předpověď počasí.

Chcete-li změnit mapu, kliknutím na zelené tlačítko se znaménkem +mapu přiblížíte, kliknutím na zelené tlačítko se znaménkem – mapu oddálíte a kliknutím na zelené šipky přejdete na sousední mapy.


METAR-TAF: